sensor_id;sensor_type;location;lat;lon;timestamp;temperature;humidity
2024;DHT22;1016;48.770;9.154;2022-09-16T00:02:22;18.50;99.90
2024;DHT22;1016;48.770;9.154;2022-09-16T00:04:48;18.50;99.90
2024;DHT22;1016;48.770;9.154;2022-09-16T00:07:13;18.40;99.90
2024;DHT22;1016;48.770;9.154;2022-09-16T00:09:39;18.50;99.90
2024;DHT22;1016;48.770;9.154;2022-09-16T00:12:05;18.50;99.90
2024;DHT22;1016;48.770;9.154;2022-09-16T00:14:31;18.50;99.90
2024;DHT22;1016;48.770;9.154;2022-09-16T00:16:56;18.40;99.90
2024;DHT22;1016;48.770;9.154;2022-09-16T00:19:22;18.40;99.90
2024;DHT22;1016;48.770;9.154;2022-09-16T00:21:47;18.50;99.90
2024;DHT22;1016;48.770;9.154;2022-09-16T00:24:14;18.50;99.90
2024;DHT22;1016;48.770;9.154;2022-09-16T00:26:41;18.40;99.90
2024;DHT22;1016;48.770;9.154;2022-09-16T00:29:07;18.40;99.90
2024;DHT22;1016;48.770;9.154;2022-09-16T00:31:33;18.40;99.90
2024;DHT22;1016;48.770;9.154;2022-09-16T00:33:58;18.50;99.90
2024;DHT22;1016;48.770;9.154;2022-09-16T00:36:24;18.50;99.90
2024;DHT22;1016;48.770;9.154;2022-09-16T00:38:51;18.50;99.90
2024;DHT22;1016;48.770;9.154;2022-09-16T00:41:19;18.50;99.90
2024;DHT22;1016;48.770;9.154;2022-09-16T00:44:00;18.40;99.90
2024;DHT22;1016;48.770;9.154;2022-09-16T00:46:37;18.30;99.90
2024;DHT22;1016;48.770;9.154;2022-09-16T00:49:09;18.20;99.90
2024;DHT22;1016;48.770;9.154;2022-09-16T00:51:36;18.20;99.90
2024;DHT22;1016;48.770;9.154;2022-09-16T00:54:03;18.10;99.90
2024;DHT22;1016;48.770;9.154;2022-09-16T00:56:33;18.00;99.90
2024;DHT22;1016;48.770;9.154;2022-09-16T00:59:14;17.90;99.90
2024;DHT22;1016;48.770;9.154;2022-09-16T01:04:16;17.70;99.90
2024;DHT22;1016;48.770;9.154;2022-09-16T01:06:42;17.70;99.90
2024;DHT22;1016;48.770;9.154;2022-09-16T01:09:07;17.60;99.90
2024;DHT22;1016;48.770;9.154;2022-09-16T01:11:33;17.70;99.90
2024;DHT22;1016;48.770;9.154;2022-09-16T01:13:59;17.70;99.90
2024;DHT22;1016;48.770;9.154;2022-09-16T01:17:26;17.60;99.90
2024;DHT22;1016;48.770;9.154;2022-09-16T01:20:05;17.70;99.90
2024;DHT22;1016;48.770;9.154;2022-09-16T01:31:11;17.80;99.90
2024;DHT22;1016;48.770;9.154;2022-09-16T01:33:42;17.70;99.90
2024;DHT22;1016;48.770;9.154;2022-09-16T01:36:27;17.70;99.90
2024;DHT22;1016;48.770;9.154;2022-09-16T01:42:00;17.80;99.90
2024;DHT22;1016;48.770;9.154;2022-09-16T01:44:50;17.80;99.90
2024;DHT22;1016;48.770;9.154;2022-09-16T01:48:01;17.70;99.90
2024;DHT22;1016;48.770;9.154;2022-09-16T01:50:46;17.50;99.90
2024;DHT22;1016;48.770;9.154;2022-09-16T01:53:17;17.60;99.90
2024;DHT22;1016;48.770;9.154;2022-09-16T01:58:45;17.50;99.90
2024;DHT22;1016;48.770;9.154;2022-09-16T02:01:18;17.50;99.90
2024;DHT22;1016;48.770;9.154;2022-09-16T02:03:56;17.50;99.90
2024;DHT22;1016;48.770;9.154;2022-09-16T02:06:24;17.40;99.90
2024;DHT22;1016;48.770;9.154;2022-09-16T02:08:51;17.40;99.90
2024;DHT22;1016;48.770;9.154;2022-09-16T02:11:19;17.20;99.90
2024;DHT22;1016;48.770;9.154;2022-09-16T02:13:48;17.40;99.90
2024;DHT22;1016;48.770;9.154;2022-09-16T02:16:30;17.40;99.90
2024;DHT22;1016;48.770;9.154;2022-09-16T02:19:00;17.30;99.90
2024;DHT22;1016;48.770;9.154;2022-09-16T02:21:31;17.30;99.90
2024;DHT22;1016;48.770;9.154;2022-09-16T02:24:01;17.20;99.90
2024;DHT22;1016;48.770;9.154;2022-09-16T02:26:31;17.10;99.90
2024;DHT22;1016;48.770;9.154;2022-09-16T02:28:58;17.10;99.90
2024;DHT22;1016;48.770;9.154;2022-09-16T02:31:29;17.20;99.90
2024;DHT22;1016;48.770;9.154;2022-09-16T02:34:00;17.20;99.90
2024;DHT22;1016;48.770;9.154;2022-09-16T02:36:28;17.20;99.90
2024;DHT22;1016;48.770;9.154;2022-09-16T02:39:06;17.20;99.90
2024;DHT22;1016;48.770;9.154;2022-09-16T02:41:34;17.20;99.90
2024;DHT22;1016;48.770;9.154;2022-09-16T02:44:01;17.20;99.90
2024;DHT22;1016;48.770;9.154;2022-09-16T02:46:41;17.20;99.90
2024;DHT22;1016;48.770;9.154;2022-09-16T02:49:37;17.10;99.90
2024;DHT22;1016;48.770;9.154;2022-09-16T02:52:22;17.10;99.90
2024;DHT22;1016;48.770;9.154;2022-09-16T02:57:25;17.10;99.90
2024;DHT22;1016;48.770;9.154;2022-09-16T02:59:51;17.10;99.90
2024;DHT22;1016;48.770;9.154;2022-09-16T03:02:17;17.10;99.90
2024;DHT22;1016;48.770;9.154;2022-09-16T03:04:43;17.10;99.90
2024;DHT22;1016;48.770;9.154;2022-09-16T03:07:10;17.10;99.90
2024;DHT22;1016;48.770;9.154;2022-09-16T03:09:40;17.00;99.90
2024;DHT22;1016;48.770;9.154;2022-09-16T03:17:42;17.00;99.90
2024;DHT22;1016;48.770;9.154;2022-09-16T03:25:38;17.00;99.90
2024;DHT22;1016;48.770;9.154;2022-09-16T03:28:18;17.00;99.90
2024;DHT22;1016;48.770;9.154;2022-09-16T03:30:55;17.00;99.90
2024;DHT22;1016;48.770;9.154;2022-09-16T03:33:48;17.00;99.90
2024;DHT22;1016;48.770;9.154;2022-09-16T03:36:19;17.10;99.90
2024;DHT22;1016;48.770;9.154;2022-09-16T03:38:47;17.10;99.90
2024;DHT22;1016;48.770;9.154;2022-09-16T03:41:14;17.00;99.90
2024;DHT22;1016;48.770;9.154;2022-09-16T03:43:52;17.10;99.90
2024;DHT22;1016;48.770;9.154;2022-09-16T03:46:17;17.10;99.90
2024;DHT22;1016;48.770;9.154;2022-09-16T03:48:43;17.10;99.90
2024;DHT22;1016;48.770;9.154;2022-09-16T03:51:08;17.10;99.90
2024;DHT22;1016;48.770;9.154;2022-09-16T03:53:33;17.10;99.90
2024;DHT22;1016;48.770;9.154;2022-09-16T03:55:59;17.10;99.90
2024;DHT22;1016;48.770;9.154;2022-09-16T03:58:25;17.10;99.90
2024;DHT22;1016;48.770;9.154;2022-09-16T04:00:50;17.10;99.90
2024;DHT22;1016;48.770;9.154;2022-09-16T04:03:16;17.10;99.90
2024;DHT22;1016;48.770;9.154;2022-09-16T04:05:42;17.10;99.90
2024;DHT22;1016;48.770;9.154;2022-09-16T04:08:07;17.20;99.90
2024;DHT22;1016;48.770;9.154;2022-09-16T04:10:33;17.20;99.90
2024;DHT22;1016;48.770;9.154;2022-09-16T04:12:59;17.10;99.90
2024;DHT22;1016;48.770;9.154;2022-09-16T04:15:25;17.20;99.90
2024;DHT22;1016;48.770;9.154;2022-09-16T04:17:50;17.20;99.90
2024;DHT22;1016;48.770;9.154;2022-09-16T04:20:16;17.20;99.90
2024;DHT22;1016;48.770;9.154;2022-09-16T04:22:41;17.20;99.90
2024;DHT22;1016;48.770;9.154;2022-09-16T04:25:07;17.20;99.90
2024;DHT22;1016;48.770;9.154;2022-09-16T04:27:34;17.20;99.90
2024;DHT22;1016;48.770;9.154;2022-09-16T04:29:59;17.20;99.90
2024;DHT22;1016;48.770;9.154;2022-09-16T04:32:25;17.10;99.90
2024;DHT22;1016;48.770;9.154;2022-09-16T04:34:50;17.10;99.90
2024;DHT22;1016;48.770;9.154;2022-09-16T04:37:16;17.10;99.90
2024;DHT22;1016;48.770;9.154;2022-09-16T04:39:41;17.10;99.90
2024;DHT22;1016;48.770;9.154;2022-09-16T04:42:07;17.10;99.90
2024;DHT22;1016;48.770;9.154;2022-09-16T04:44:32;17.10;99.90
2024;DHT22;1016;48.770;9.154;2022-09-16T04:46:58;17.10;99.90
2024;DHT22;1016;48.770;9.154;2022-09-16T04:49:23;17.10;99.90
2024;DHT22;1016;48.770;9.154;2022-09-16T04:51:49;17.10;99.90
2024;DHT22;1016;48.770;9.154;2022-09-16T04:54:16;17.10;99.90
2024;DHT22;1016;48.770;9.154;2022-09-16T04:56:41;17.20;99.90
2024;DHT22;1016;48.770;9.154;2022-09-16T04:59:09;17.20;99.90
2024;DHT22;1016;48.770;9.154;2022-09-16T05:01:37;17.20;99.90
2024;DHT22;1016;48.770;9.154;2022-09-16T05:04:05;17.10;99.90
2024;DHT22;1016;48.770;9.154;2022-09-16T05:06:34;17.10;99.90
2024;DHT22;1016;48.770;9.154;2022-09-16T05:09:00;17.10;99.90
2024;DHT22;1016;48.770;9.154;2022-09-16T05:11:28;17.10;99.90
2024;DHT22;1016;48.770;9.154;2022-09-16T05:13:57;17.10;99.90
2024;DHT22;1016;48.770;9.154;2022-09-16T05:16:23;17.10;99.90
2024;DHT22;1016;48.770;9.154;2022-09-16T05:18:53;17.10;99.90
2024;DHT22;1016;48.770;9.154;2022-09-16T05:21:20;17.00;99.90
2024;DHT22;1016;48.770;9.154;2022-09-16T05:23:46;17.00;99.90
2024;DHT22;1016;48.770;9.154;2022-09-16T05:28:45;16.90;99.90
2024;DHT22;1016;48.770;9.154;2022-09-16T05:31:19;16.80;99.90
2024;DHT22;1016;48.770;9.154;2022-09-16T05:33:52;16.70;99.90
2024;DHT22;1016;48.770;9.154;2022-09-16T05:36:18;16.80;99.90
2024;DHT22;1016;48.770;9.154;2022-09-16T05:38:44;16.80;99.90
2024;DHT22;1016;48.770;9.154;2022-09-16T05:41:10;16.80;99.90
2024;DHT22;1016;48.770;9.154;2022-09-16T05:43:36;16.80;99.90
2024;DHT22;1016;48.770;9.154;2022-09-16T05:46:03;16.80;99.90
2024;DHT22;1016;48.770;9.154;2022-09-16T05:48:29;16.80;99.90
2024;DHT22;1016;48.770;9.154;2022-09-16T05:50:59;16.80;99.90
2024;DHT22;1016;48.770;9.154;2022-09-16T05:53:26;16.80;99.90
2024;DHT22;1016;48.770;9.154;2022-09-16T05:55:59;16.70;99.90
2024;DHT22;1016;48.770;9.154;2022-09-16T05:58:26;16.70;99.90
2024;DHT22;1016;48.770;9.154;2022-09-16T06:01:04;16.70;99.90
2024;DHT22;1016;48.770;9.154;2022-09-16T06:03:31;16.70;99.90
2024;DHT22;1016;48.770;9.154;2022-09-16T06:06:02;16.80;99.90
2024;DHT22;1016;48.770;9.154;2022-09-16T06:08:29;16.70;99.90
2024;DHT22;1016;48.770;9.154;2022-09-16T06:10:55;16.60;99.90
2024;DHT22;1016;48.770;9.154;2022-09-16T06:13:20;16.60;99.90
2024;DHT22;1016;48.770;9.154;2022-09-16T06:15:50;16.60;99.90
2024;DHT22;1016;48.770;9.154;2022-09-16T06:18:18;16.60;99.90
2024;DHT22;1016;48.770;9.154;2022-09-16T06:20:44;16.60;99.90
2024;DHT22;1016;48.770;9.154;2022-09-16T06:23:10;16.60;99.90
2024;DHT22;1016;48.770;9.154;2022-09-16T06:25:36;16.60;99.90
2024;DHT22;1016;48.770;9.154;2022-09-16T06:28:02;16.50;99.90
2024;DHT22;1016;48.770;9.154;2022-09-16T06:30:28;16.50;99.90
2024;DHT22;1016;48.770;9.154;2022-09-16T06:32:53;16.40;99.90
2024;DHT22;1016;48.770;9.154;2022-09-16T06:37:45;16.40;99.90
2024;DHT22;1016;48.770;9.154;2022-09-16T06:40:10;16.50;99.90
2024;DHT22;1016;48.770;9.154;2022-09-16T06:42:36;16.50;99.90
2024;DHT22;1016;48.770;9.154;2022-09-16T06:45:02;16.50;99.90
2024;DHT22;1016;48.770;9.154;2022-09-16T06:47:29;16.40;99.90
2024;DHT22;1016;48.770;9.154;2022-09-16T06:50:00;16.40;99.90
2024;DHT22;1016;48.770;9.154;2022-09-16T06:52:26;16.40;99.90
2024;DHT22;1016;48.770;9.154;2022-09-16T06:54:52;16.40;99.90
2024;DHT22;1016;48.770;9.154;2022-09-16T06:57:17;16.50;99.90
2024;DHT22;1016;48.770;9.154;2022-09-16T06:59:44;16.40;99.90
2024;DHT22;1016;48.770;9.154;2022-09-16T07:02:10;16.40;99.90
2024;DHT22;1016;48.770;9.154;2022-09-16T07:04:36;16.50;99.90
2024;DHT22;1016;48.770;9.154;2022-09-16T07:07:02;16.50;99.90
2024;DHT22;1016;48.770;9.154;2022-09-16T07:09:28;16.50;99.90
2024;DHT22;1016;48.770;9.154;2022-09-16T07:11:53;16.60;99.90
2024;DHT22;1016;48.770;9.154;2022-09-16T07:14:20;16.50;99.90
2024;DHT22;1016;48.770;9.154;2022-09-16T07:16:46;16.40;99.90
2024;DHT22;1016;48.770;9.154;2022-09-16T07:19:12;16.50;99.90
2024;DHT22;1016;48.770;9.154;2022-09-16T07:21:37;16.40;99.90
2024;DHT22;1016;48.770;9.154;2022-09-16T07:24:06;16.30;99.90
2024;DHT22;1016;48.770;9.154;2022-09-16T07:26:33;16.30;99.90
2024;DHT22;1016;48.770;9.154;2022-09-16T07:29:01;16.30;99.90
2024;DHT22;1016;48.770;9.154;2022-09-16T07:31:29;16.20;99.90
2024;DHT22;1016;48.770;9.154;2022-09-16T07:33:57;16.30;99.90
2024;DHT22;1016;48.770;9.154;2022-09-16T07:36:25;16.30;99.90
2024;DHT22;1016;48.770;9.154;2022-09-16T07:38:51;16.40;99.90
2024;DHT22;1016;48.770;9.154;2022-09-16T07:41:20;16.30;99.90
2024;DHT22;1016;48.770;9.154;2022-09-16T07:43:46;16.30;99.90
2024;DHT22;1016;48.770;9.154;2022-09-16T07:46:16;15.30;99.90
2024;DHT22;1016;48.770;9.154;2022-09-16T07:48:43;16.10;99.90
2024;DHT22;1016;48.770;9.154;2022-09-16T07:51:14;16.30;99.90
2024;DHT22;1016;48.770;9.154;2022-09-16T07:53:41;16.30;99.90
2024;DHT22;1016;48.770;9.154;2022-09-16T07:56:18;16.40;99.90
2024;DHT22;1016;48.770;9.154;2022-09-16T07:58:45;16.30;99.90
2024;DHT22;1016;48.770;9.154;2022-09-16T08:01:12;16.20;99.90
2024;DHT22;1016;48.770;9.154;2022-09-16T08:03:40;16.20;99.90
2024;DHT22;1016;48.770;9.154;2022-09-16T08:06:08;16.20;99.90
2024;DHT22;1016;48.770;9.154;2022-09-16T08:08:34;16.20;99.90
2024;DHT22;1016;48.770;9.154;2022-09-16T08:11:01;16.30;99.90
2024;DHT22;1016;48.770;9.154;2022-09-16T08:13:28;16.40;99.90
2024;DHT22;1016;48.770;9.154;2022-09-16T08:15:58;16.50;99.90
2024;DHT22;1016;48.770;9.154;2022-09-16T08:18:23;16.50;99.90
2024;DHT22;1016;48.770;9.154;2022-09-16T08:20:49;16.30;99.90
2024;DHT22;1016;48.770;9.154;2022-09-16T08:23:14;16.20;99.90
2024;DHT22;1016;48.770;9.154;2022-09-16T08:25:40;16.10;99.90
2024;DHT22;1016;48.770;9.154;2022-09-16T08:28:12;16.10;99.90
2024;DHT22;1016;48.770;9.154;2022-09-16T08:30:38;16.30;99.90
2024;DHT22;1016;48.770;9.154;2022-09-16T08:33:04;16.40;99.90
2024;DHT22;1016;48.770;9.154;2022-09-16T08:35:29;16.30;99.90
2024;DHT22;1016;48.770;9.154;2022-09-16T08:37:55;16.30;99.90
2024;DHT22;1016;48.770;9.154;2022-09-16T08:40:23;16.30;99.90
2024;DHT22;1016;48.770;9.154;2022-09-16T08:46:18;16.40;99.90
2024;DHT22;1016;48.770;9.154;2022-09-16T08:49:24;16.60;99.90
2024;DHT22;1016;48.770;9.154;2022-09-16T08:51:57;16.70;99.90
2024;DHT22;1016;48.770;9.154;2022-09-16T08:54:29;16.60;99.90
2024;DHT22;1016;48.770;9.154;2022-09-16T08:56:58;16.50;99.90
2024;DHT22;1016;48.770;9.154;2022-09-16T08:59:28;16.40;99.90
2024;DHT22;1016;48.770;9.154;2022-09-16T09:02:12;16.30;99.90
2024;DHT22;1016;48.770;9.154;2022-09-16T09:04:43;16.30;99.90
2024;DHT22;1016;48.770;9.154;2022-09-16T09:07:16;16.20;99.90
2024;DHT22;1016;48.770;9.154;2022-09-16T09:10:09;16.20;99.90
2024;DHT22;1016;48.770;9.154;2022-09-16T09:12:48;16.20;99.90
2024;DHT22;1016;48.770;9.154;2022-09-16T09:15:27;16.40;99.90
2024;DHT22;1016;48.770;9.154;2022-09-16T09:18:13;16.50;99.90
2024;DHT22;1016;48.770;9.154;2022-09-16T09:21:09;16.60;99.90
2024;DHT22;1016;48.770;9.154;2022-09-16T09:24:01;16.70;99.90
2024;DHT22;1016;48.770;9.154;2022-09-16T09:26:50;16.80;99.90
2024;DHT22;1016;48.770;9.154;2022-09-16T09:32:20;16.90;99.90
2024;DHT22;1016;48.770;9.154;2022-09-16T09:40:20;17.00;99.90
2024;DHT22;1016;48.770;9.154;2022-09-16T09:43:06;17.00;99.90
2024;DHT22;1016;48.770;9.154;2022-09-16T09:45:41;17.10;99.90
2024;DHT22;1016;48.770;9.154;2022-09-16T09:48:36;17.10;99.90
2024;DHT22;1016;48.770;9.154;2022-09-16T09:51:20;17.10;99.90
2024;DHT22;1016;48.770;9.154;2022-09-16T09:53:50;17.00;99.90
2024;DHT22;1016;48.770;9.154;2022-09-16T09:56:27;17.10;99.90
2024;DHT22;1016;48.770;9.154;2022-09-16T10:01:57;17.20;99.90
2024;DHT22;1016;48.770;9.154;2022-09-16T10:04:23;17.20;99.90
2024;DHT22;1016;48.770;9.154;2022-09-16T10:06:51;17.20;99.90
2024;DHT22;1016;48.770;9.154;2022-09-16T10:09:19;17.20;99.90
2024;DHT22;1016;48.770;9.154;2022-09-16T10:11:52;17.10;99.90
2024;DHT22;1016;48.770;9.154;2022-09-16T10:14:31;17.00;99.90
2024;DHT22;1016;48.770;9.154;2022-09-16T10:17:00;17.00;99.90
2024;DHT22;1016;48.770;9.154;2022-09-16T10:19:27;16.90;99.90
2024;DHT22;1016;48.770;9.154;2022-09-16T10:22:06;16.90;99.90
2024;DHT22;1016;48.770;9.154;2022-09-16T10:24:38;16.90;99.90
2024;DHT22;1016;48.770;9.154;2022-09-16T10:27:23;17.00;99.90
2024;DHT22;1016;48.770;9.154;2022-09-16T10:30:04;17.20;99.90
2024;DHT22;1016;48.770;9.154;2022-09-16T10:32:30;17.10;99.90
2024;DHT22;1016;48.770;9.154;2022-09-16T10:34:56;17.20;99.90
2024;DHT22;1016;48.770;9.154;2022-09-16T10:37:23;17.30;99.90
2024;DHT22;1016;48.770;9.154;2022-09-16T10:39:54;17.30;99.90
2024;DHT22;1016;48.770;9.154;2022-09-16T10:42:23;17.30;99.90
2024;DHT22;1016;48.770;9.154;2022-09-16T10:44:51;17.40;99.90
2024;DHT22;1016;48.770;9.154;2022-09-16T10:47:27;17.40;99.90
2024;DHT22;1016;48.770;9.154;2022-09-16T10:49:55;17.50;99.90
2024;DHT22;1016;48.770;9.154;2022-09-16T10:52:24;17.50;99.90
2024;DHT22;1016;48.770;9.154;2022-09-16T10:54:51;17.50;99.90
2024;DHT22;1016;48.770;9.154;2022-09-16T11:00:11;17.60;99.90
2024;DHT22;1016;48.770;9.154;2022-09-16T11:05:39;17.50;99.90
2024;DHT22;1016;48.770;9.154;2022-09-16T11:08:18;17.40;99.90
2024;DHT22;1016;48.770;9.154;2022-09-16T11:13:42;17.30;99.90
2024;DHT22;1016;48.770;9.154;2022-09-16T11:22:01;17.30;99.90
2024;DHT22;1016;48.770;9.154;2022-09-16T11:25:00;17.20;99.90
2024;DHT22;1016;48.770;9.154;2022-09-16T11:30:03;17.10;99.90
2024;DHT22;1016;48.770;9.154;2022-09-16T11:38:24;17.00;99.90
2024;DHT22;1016;48.770;9.154;2022-09-16T11:41:00;17.10;99.90
2024;DHT22;1016;48.770;9.154;2022-09-16T11:48:56;17.00;99.90
2024;DHT22;1016;48.770;9.154;2022-09-16T11:57:15;16.90;99.90
2024;DHT22;1016;48.770;9.154;2022-09-16T11:59:52;17.00;99.90
2024;DHT22;1016;48.770;9.154;2022-09-16T12:08:00;17.20;99.90
2024;DHT22;1016;48.770;9.154;2022-09-16T12:10:46;17.10;99.90
2024;DHT22;1016;48.770;9.154;2022-09-16T12:13:17;17.20;99.90
2024;DHT22;1016;48.770;9.154;2022-09-16T12:16:00;17.30;99.90
2024;DHT22;1016;48.770;9.154;2022-09-16T12:18:34;17.30;99.90
2024;DHT22;1016;48.770;9.154;2022-09-16T12:21:15;17.30;99.90
2024;DHT22;1016;48.770;9.154;2022-09-16T12:23:53;17.40;99.90
2024;DHT22;1016;48.770;9.154;2022-09-16T12:26:24;17.50;99.90
2024;DHT22;1016;48.770;9.154;2022-09-16T12:29:01;17.50;99.90
2024;DHT22;1016;48.770;9.154;2022-09-16T12:31:38;17.50;99.90
2024;DHT22;1016;48.770;9.154;2022-09-16T12:34:15;17.60;99.90
2024;DHT22;1016;48.770;9.154;2022-09-16T12:36:47;17.60;99.90
2024;DHT22;1016;48.770;9.154;2022-09-16T12:39:13;17.60;99.90
2024;DHT22;1016;48.770;9.154;2022-09-16T12:55:58;17.60;99.90
2024;DHT22;1016;48.770;9.154;2022-09-16T13:03:48;17.80;99.90
2024;DHT22;1016;48.770;9.154;2022-09-16T13:06:25;17.80;99.90
2024;DHT22;1016;48.770;9.154;2022-09-16T13:08:52;17.80;99.90
2024;DHT22;1016;48.770;9.154;2022-09-16T13:11:23;17.80;99.90
2024;DHT22;1016;48.770;9.154;2022-09-16T13:13:54;17.80;99.90
2024;DHT22;1016;48.770;9.154;2022-09-16T13:16:56;17.80;99.90
2024;DHT22;1016;48.770;9.154;2022-09-16T13:19:50;17.90;99.90
2024;DHT22;1016;48.770;9.154;2022-09-16T13:25:25;18.10;99.90
2024;DHT22;1016;48.770;9.154;2022-09-16T13:28:44;18.10;99.90
2024;DHT22;1016;48.770;9.154;2022-09-16T13:33:43;18.20;99.90
2024;DHT22;1016;48.770;9.154;2022-09-16T13:36:31;18.30;99.90
2024;DHT22;1016;48.770;9.154;2022-09-16T13:39:03;18.40;99.90
2024;DHT22;1016;48.770;9.154;2022-09-16T13:41:38;18.60;99.90
2024;DHT22;1016;48.770;9.154;2022-09-16T13:44:40;18.60;99.90
2024;DHT22;1016;48.770;9.154;2022-09-16T13:49:47;18.90;99.90
2024;DHT22;1016;48.770;9.154;2022-09-16T13:52:27;19.20;99.90
2024;DHT22;1016;48.770;9.154;2022-09-16T13:54:55;19.20;99.90
2024;DHT22;1016;48.770;9.154;2022-09-16T14:03:08;18.90;99.90
2024;DHT22;1016;48.770;9.154;2022-09-16T14:14:17;18.60;99.90
2024;DHT22;1016;48.770;9.154;2022-09-16T14:16:44;18.90;99.90
2024;DHT22;1016;48.770;9.154;2022-09-16T14:19:28;20.20;99.90
2024;DHT22;1016;48.770;9.154;2022-09-16T14:22:26;20.40;99.90
2024;DHT22;1016;48.770;9.154;2022-09-16T14:24:56;20.20;99.90
2024;DHT22;1016;48.770;9.154;2022-09-16T14:27:30;20.20;99.90
2024;DHT22;1016;48.770;9.154;2022-09-16T14:30:04;20.10;99.90
2024;DHT22;1016;48.770;9.154;2022-09-16T14:32:35;20.20;99.90
2024;DHT22;1016;48.770;9.154;2022-09-16T14:35:07;20.40;99.90
2024;DHT22;1016;48.770;9.154;2022-09-16T14:37:34;20.30;99.90
2024;DHT22;1016;48.770;9.154;2022-09-16T14:40:08;20.20;99.90
2024;DHT22;1016;48.770;9.154;2022-09-16T14:42:36;20.00;99.90
2024;DHT22;1016;48.770;9.154;2022-09-16T14:45:03;20.40;99.90
2024;DHT22;1016;48.770;9.154;2022-09-16T14:47:50;20.50;99.90
2024;DHT22;1016;48.770;9.154;2022-09-16T14:50:25;20.30;99.90
2024;DHT22;1016;48.770;9.154;2022-09-16T14:55:24;19.90;99.90
2024;DHT22;1016;48.770;9.154;2022-09-16T14:57:50;19.80;99.90
2024;DHT22;1016;48.770;9.154;2022-09-16T15:00:17;19.70;99.90
2024;DHT22;1016;48.770;9.154;2022-09-16T15:03:00;19.50;99.90
2024;DHT22;1016;48.770;9.154;2022-09-16T15:05:36;19.40;99.90
2024;DHT22;1016;48.770;9.154;2022-09-16T15:08:17;19.40;99.90
2024;DHT22;1016;48.770;9.154;2022-09-16T15:10:45;19.40;99.90
2024;DHT22;1016;48.770;9.154;2022-09-16T15:13:13;19.40;99.90
2024;DHT22;1016;48.770;9.154;2022-09-16T15:15:47;19.30;99.90
2024;DHT22;1016;48.770;9.154;2022-09-16T15:18:22;19.30;99.90
2024;DHT22;1016;48.770;9.154;2022-09-16T15:20:57;19.30;99.90
2024;DHT22;1016;48.770;9.154;2022-09-16T15:23:25;19.30;99.90
2024;DHT22;1016;48.770;9.154;2022-09-16T15:26:05;19.10;99.90
2024;DHT22;1016;48.770;9.154;2022-09-16T15:28:31;19.00;99.90
2024;DHT22;1016;48.770;9.154;2022-09-16T15:30:57;18.80;99.90
2024;DHT22;1016;48.770;9.154;2022-09-16T15:33:40;18.80;99.90
2024;DHT22;1016;48.770;9.154;2022-09-16T15:36:11;18.80;99.90
2024;DHT22;1016;48.770;9.154;2022-09-16T15:38:56;18.70;99.90
2024;DHT22;1016;48.770;9.154;2022-09-16T15:41:22;18.70;99.90
2024;DHT22;1016;48.770;9.154;2022-09-16T15:43:47;18.70;99.90
2024;DHT22;1016;48.770;9.154;2022-09-16T15:46:21;18.60;99.90
2024;DHT22;1016;48.770;9.154;2022-09-16T15:48:58;18.50;99.90
2024;DHT22;1016;48.770;9.154;2022-09-16T15:51:43;18.60;99.90
2024;DHT22;1016;48.770;9.154;2022-09-16T15:54:25;18.50;99.90
2024;DHT22;1016;48.770;9.154;2022-09-16T15:56:56;18.50;99.90
2024;DHT22;1016;48.770;9.154;2022-09-16T15:59:45;18.50;99.90
2024;DHT22;1016;48.770;9.154;2022-09-16T16:02:25;18.40;99.90
2024;DHT22;1016;48.770;9.154;2022-09-16T16:05:18;18.50;99.90
2024;DHT22;1016;48.770;9.154;2022-09-16T16:07:49;18.40;99.90
2024;DHT22;1016;48.770;9.154;2022-09-16T16:10:27;18.40;99.90
2024;DHT22;1016;48.770;9.154;2022-09-16T16:12:54;18.40;99.90
2024;DHT22;1016;48.770;9.154;2022-09-16T16:15:24;18.40;99.90
2024;DHT22;1016;48.770;9.154;2022-09-16T16:17:50;18.40;99.90
2024;DHT22;1016;48.770;9.154;2022-09-16T16:20:17;18.40;99.90
2024;DHT22;1016;48.770;9.154;2022-09-16T16:22:44;18.50;99.90
2024;DHT22;1016;48.770;9.154;2022-09-16T16:25:10;18.40;99.90
2024;DHT22;1016;48.770;9.154;2022-09-16T16:27:35;18.50;99.90
2024;DHT22;1016;48.770;9.154;2022-09-16T16:30:02;18.50;99.90
2024;DHT22;1016;48.770;9.154;2022-09-16T16:32:27;18.50;99.90
2024;DHT22;1016;48.770;9.154;2022-09-16T16:34:53;18.40;99.90
2024;DHT22;1016;48.770;9.154;2022-09-16T16:37:22;18.30;99.90
2024;DHT22;1016;48.770;9.154;2022-09-16T16:39:47;18.30;99.90
2024;DHT22;1016;48.770;9.154;2022-09-16T16:42:14;18.30;99.90
2024;DHT22;1016;48.770;9.154;2022-09-16T16:44:40;18.20;99.90
2024;DHT22;1016;48.770;9.154;2022-09-16T16:47:06;18.20;99.90
2024;DHT22;1016;48.770;9.154;2022-09-16T16:49:32;18.20;99.90
2024;DHT22;1016;48.770;9.154;2022-09-16T16:51:59;18.10;99.90
2024;DHT22;1016;48.770;9.154;2022-09-16T16:54:25;18.10;99.90
2024;DHT22;1016;48.770;9.154;2022-09-16T16:56:51;18.00;99.90
2024;DHT22;1016;48.770;9.154;2022-09-16T16:59:18;17.90;99.90
2024;DHT22;1016;48.770;9.154;2022-09-16T17:01:45;17.90;99.90
2024;DHT22;1016;48.770;9.154;2022-09-16T17:04:11;17.90;99.90
2024;DHT22;1016;48.770;9.154;2022-09-16T17:06:37;17.80;99.90
2024;DHT22;1016;48.770;9.154;2022-09-16T17:09:07;17.80;99.90
2024;DHT22;1016;48.770;9.154;2022-09-16T17:11:33;17.80;99.90
2024;DHT22;1016;48.770;9.154;2022-09-16T17:14:03;17.70;99.90
2024;DHT22;1016;48.770;9.154;2022-09-16T17:16:29;17.80;99.90
2024;DHT22;1016;48.770;9.154;2022-09-16T17:18:57;17.80;99.90
2024;DHT22;1016;48.770;9.154;2022-09-16T17:21:26;17.80;99.90
2024;DHT22;1016;48.770;9.154;2022-09-16T17:23:52;17.90;99.90
2024;DHT22;1016;48.770;9.154;2022-09-16T17:26:19;17.90;99.90
2024;DHT22;1016;48.770;9.154;2022-09-16T17:28:46;17.90;99.90
2024;DHT22;1016;48.770;9.154;2022-09-16T17:31:18;17.80;99.90
2024;DHT22;1016;48.770;9.154;2022-09-16T17:33:49;17.70;99.90
2024;DHT22;1016;48.770;9.154;2022-09-16T17:36:16;17.50;99.90
2024;DHT22;1016;48.770;9.154;2022-09-16T17:38:43;17.40;99.90
2024;DHT22;1016;48.770;9.154;2022-09-16T17:41:11;17.40;99.90
2024;DHT22;1016;48.770;9.154;2022-09-16T17:43:38;17.40;99.90
2024;DHT22;1016;48.770;9.154;2022-09-16T17:46:10;17.30;99.90
2024;DHT22;1016;48.770;9.154;2022-09-16T17:48:36;17.10;99.90
2024;DHT22;1016;48.770;9.154;2022-09-16T17:51:02;16.90;99.90
2024;DHT22;1016;48.770;9.154;2022-09-16T17:53:28;16.70;99.90
2024;DHT22;1016;48.770;9.154;2022-09-16T17:56:11;16.60;99.90
2024;DHT22;1016;48.770;9.154;2022-09-16T17:58:38;16.50;99.90
2024;DHT22;1016;48.770;9.154;2022-09-16T18:01:16;16.50;99.90
2024;DHT22;1016;48.770;9.154;2022-09-16T18:03:44;16.40;99.90
2024;DHT22;1016;48.770;9.154;2022-09-16T18:06:12;16.30;99.90
2024;DHT22;1016;48.770;9.154;2022-09-16T18:08:39;16.30;99.90
2024;DHT22;1016;48.770;9.154;2022-09-16T18:11:06;16.30;99.90
2024;DHT22;1016;48.770;9.154;2022-09-16T18:13:34;16.40;99.90
2024;DHT22;1016;48.770;9.154;2022-09-16T18:16:11;16.30;99.90
2024;DHT22;1016;48.770;9.154;2022-09-16T18:18:39;16.40;99.90
2024;DHT22;1016;48.770;9.154;2022-09-16T18:21:07;16.30;99.90
2024;DHT22;1016;48.770;9.154;2022-09-16T18:23:33;16.30;99.90
2024;DHT22;1016;48.770;9.154;2022-09-16T18:26:04;16.30;99.90
2024;DHT22;1016;48.770;9.154;2022-09-16T18:28:31;16.30;99.90
2024;DHT22;1016;48.770;9.154;2022-09-16T18:31:09;16.20;99.90
2024;DHT22;1016;48.770;9.154;2022-09-16T18:33:35;16.20;99.90
2024;DHT22;1016;48.770;9.154;2022-09-16T18:36:05;16.20;99.90
2024;DHT22;1016;48.770;9.154;2022-09-16T18:38:32;16.10;99.90
2024;DHT22;1016;48.770;9.154;2022-09-16T18:41:14;16.20;99.90
2024;DHT22;1016;48.770;9.154;2022-09-16T18:43:41;16.10;99.90